sensor_id;sensor_type;location;lat;lon;timestamp;P1;durP1;ratioP1;P2;durP2;ratioP2
74471;SDS011;62920;53.572;10.050;2023-03-31T00:02:22;14.18;;;2.25;;
74471;SDS011;62920;53.572;10.050;2023-03-31T00:04:48;15.30;;;2.35;;
74471;SDS011;62920;53.572;10.050;2023-03-31T00:07:17;11.77;;;2.25;;
74471;SDS011;62920;53.572;10.050;2023-03-31T00:09:46;14.63;;;2.90;;
74471;SDS011;62920;53.572;10.050;2023-03-31T00:12:12;13.30;;;2.80;;
74471;SDS011;62920;53.572;10.050;2023-03-31T00:14:39;11.00;;;2.08;;
74471;SDS011;62920;53.572;10.050;2023-03-31T00:17:04;12.20;;;2.85;;
74471;SDS011;62920;53.572;10.050;2023-03-31T00:19:29;12.73;;;2.13;;
74471;SDS011;62920;53.572;10.050;2023-03-31T00:21:57;10.20;;;2.33;;
74471;SDS011;62920;53.572;10.050;2023-03-31T00:24:26;17.70;;;2.92;;
74471;SDS011;62920;53.572;10.050;2023-03-31T00:26:52;11.50;;;1.98;;
74471;SDS011;62920;53.572;10.050;2023-03-31T00:29:17;14.10;;;2.85;;
74471;SDS011;62920;53.572;10.050;2023-03-31T00:31:43;10.05;;;1.75;;
74471;SDS011;62920;53.572;10.050;2023-03-31T00:34:08;12.25;;;2.30;;
74471;SDS011;62920;53.572;10.050;2023-03-31T00:36:34;10.43;;;1.88;;
74471;SDS011;62920;53.572;10.050;2023-03-31T00:39:02;11.02;;;2.00;;
74471;SDS011;62920;53.572;10.050;2023-03-31T00:41:38;11.90;;;2.17;;
74471;SDS011;62920;53.572;10.050;2023-03-31T00:44:05;16.35;;;2.70;;
74471;SDS011;62920;53.572;10.050;2023-03-31T00:46:39;11.20;;;2.08;;
74471;SDS011;62920;53.572;10.050;2023-03-31T00:49:07;17.42;;;2.70;;
74471;SDS011;62920;53.572;10.050;2023-03-31T00:51:36;15.63;;;2.58;;
74471;SDS011;62920;53.572;10.050;2023-03-31T00:54:02;14.48;;;1.85;;
74471;SDS011;62920;53.572;10.050;2023-03-31T00:56:40;9.60;;;1.52;;
74471;SDS011;62920;53.572;10.050;2023-03-31T00:59:08;16.10;;;2.03;;
74471;SDS011;62920;53.572;10.050;2023-03-31T01:01:35;14.23;;;2.65;;
74471;SDS011;62920;53.572;10.050;2023-03-31T01:04:03;13.93;;;1.90;;
74471;SDS011;62920;53.572;10.050;2023-03-31T01:06:31;15.73;;;2.38;;
74471;SDS011;62920;53.572;10.050;2023-03-31T01:08:57;16.38;;;2.75;;
74471;SDS011;62920;53.572;10.050;2023-03-31T01:11:23;12.85;;;2.20;;
74471;SDS011;62920;53.572;10.050;2023-03-31T01:13:50;15.23;;;1.90;;
74471;SDS011;62920;53.572;10.050;2023-03-31T01:16:19;13.80;;;1.85;;
74471;SDS011;62920;53.572;10.050;2023-03-31T01:18:45;12.07;;;1.77;;
74471;SDS011;62920;53.572;10.050;2023-03-31T01:44:16;17.88;;;3.30;;
74471;SDS011;62920;53.572;10.050;2023-03-31T01:46:55;9.88;;;2.13;;
74471;SDS011;62920;53.572;10.050;2023-03-31T01:49:24;12.02;;;2.20;;
74471;SDS011;62920;53.572;10.050;2023-03-31T02:02:36;12.75;;;2.03;;
74471;SDS011;62920;53.572;10.050;2023-03-31T02:05:05;13.82;;;2.20;;
74471;SDS011;62920;53.572;10.050;2023-03-31T02:07:39;9.55;;;1.80;;
74471;SDS011;62920;53.572;10.050;2023-03-31T02:10:08;15.30;;;2.55;;
74471;SDS011;62920;53.572;10.050;2023-03-31T02:14:59;13.93;;;1.70;;
74471;SDS011;62920;53.572;10.050;2023-03-31T02:17:26;12.15;;;2.15;;
74471;SDS011;62920;53.572;10.050;2023-03-31T02:19:57;9.38;;;2.25;;
74471;SDS011;62920;53.572;10.050;2023-03-31T02:22:24;13.80;;;2.38;;
74471;SDS011;62920;53.572;10.050;2023-03-31T02:24:52;10.60;;;2.70;;
74471;SDS011;62920;53.572;10.050;2023-03-31T02:27:23;16.33;;;2.72;;
74471;SDS011;62920;53.572;10.050;2023-03-31T02:29:49;17.80;;;2.78;;
74471;SDS011;62920;53.572;10.050;2023-03-31T02:34:47;12.13;;;2.80;;
74471;SDS011;62920;53.572;10.050;2023-03-31T02:37:13;13.38;;;2.60;;
74471;SDS011;62920;53.572;10.050;2023-03-31T02:39:40;9.82;;;2.40;;
74471;SDS011;62920;53.572;10.050;2023-03-31T02:42:07;9.25;;;2.55;;
74471;SDS011;62920;53.572;10.050;2023-03-31T02:44:33;10.65;;;2.63;;
74471;SDS011;62920;53.572;10.050;2023-03-31T02:47:00;8.95;;;2.25;;
74471;SDS011;62920;53.572;10.050;2023-03-31T02:49:26;12.48;;;2.10;;
74471;SDS011;62920;53.572;10.050;2023-03-31T02:54:47;14.13;;;2.72;;
74471;SDS011;62920;53.572;10.050;2023-03-31T03:00:19;13.32;;;2.67;;
74471;SDS011;62920;53.572;10.050;2023-03-31T03:10:59;12.93;;;3.17;;
74471;SDS011;62920;53.572;10.050;2023-03-31T03:13:34;10.77;;;2.92;;
74471;SDS011;62920;53.572;10.050;2023-03-31T03:16:18;11.20;;;2.80;;
74471;SDS011;62920;53.572;10.050;2023-03-31T03:18:58;14.90;;;3.13;;
74471;SDS011;62920;53.572;10.050;2023-03-31T03:21:25;8.52;;;2.60;;
74471;SDS011;62920;53.572;10.050;2023-03-31T03:23:51;8.57;;;2.38;;
74471;SDS011;62920;53.572;10.050;2023-03-31T03:26:17;11.27;;;3.13;;
74471;SDS011;62920;53.572;10.050;2023-03-31T03:28:48;14.10;;;2.58;;
74471;SDS011;62920;53.572;10.050;2023-03-31T03:31:14;10.60;;;3.33;;
74471;SDS011;62920;53.572;10.050;2023-03-31T03:33:39;9.55;;;2.88;;
74471;SDS011;62920;53.572;10.050;2023-03-31T03:36:05;9.65;;;2.53;;
74471;SDS011;62920;53.572;10.050;2023-03-31T03:38:31;14.48;;;3.13;;
74471;SDS011;62920;53.572;10.050;2023-03-31T03:40:56;15.50;;;3.58;;
74471;SDS011;62920;53.572;10.050;2023-03-31T03:43:22;8.93;;;2.53;;
74471;SDS011;62920;53.572;10.050;2023-03-31T03:45:48;10.15;;;2.80;;
74471;SDS011;62920;53.572;10.050;2023-03-31T03:48:13;12.57;;;2.92;;
74471;SDS011;62920;53.572;10.050;2023-03-31T03:50:39;12.88;;;3.08;;
74471;SDS011;62920;53.572;10.050;2023-03-31T03:53:05;11.63;;;2.97;;
74471;SDS011;62920;53.572;10.050;2023-03-31T03:55:31;8.55;;;2.60;;
74471;SDS011;62920;53.572;10.050;2023-03-31T03:57:56;12.48;;;2.90;;
74471;SDS011;62920;53.572;10.050;2023-03-31T04:00:21;9.52;;;2.85;;
74471;SDS011;62920;53.572;10.050;2023-03-31T04:02:47;13.65;;;3.00;;
74471;SDS011;62920;53.572;10.050;2023-03-31T04:05:12;10.43;;;2.78;;
74471;SDS011;62920;53.572;10.050;2023-03-31T04:07:38;11.35;;;3.05;;
74471;SDS011;62920;53.572;10.050;2023-03-31T04:10:03;9.43;;;2.92;;
74471;SDS011;62920;53.572;10.050;2023-03-31T04:12:29;8.40;;;3.05;;
74471;SDS011;62920;53.572;10.050;2023-03-31T04:14:54;10.23;;;2.90;;
74471;SDS011;62920;53.572;10.050;2023-03-31T04:17:19;13.02;;;2.92;;
74471;SDS011;62920;53.572;10.050;2023-03-31T04:20:00;13.50;;;2.78;;
74471;SDS011;62920;53.572;10.050;2023-03-31T04:22:29;12.23;;;2.95;;
74471;SDS011;62920;53.572;10.050;2023-03-31T04:24:59;15.43;;;3.53;;
74471;SDS011;62920;53.572;10.050;2023-03-31T04:27:27;17.05;;;4.38;;
74471;SDS011;62920;53.572;10.050;2023-03-31T04:29:53;11.10;;;3.20;;
74471;SDS011;62920;53.572;10.050;2023-03-31T04:32:21;13.77;;;3.72;;
74471;SDS011;62920;53.572;10.050;2023-03-31T04:34:48;13.48;;;4.20;;
74471;SDS011;62920;53.572;10.050;2023-03-31T04:37:15;14.32;;;4.32;;
74471;SDS011;62920;53.572;10.050;2023-03-31T04:39:41;13.55;;;3.72;;
74471;SDS011;62920;53.572;10.050;2023-03-31T04:42:06;12.55;;;3.50;;
74471;SDS011;62920;53.572;10.050;2023-03-31T04:44:31;9.32;;;3.47;;
74471;SDS011;62920;53.572;10.050;2023-03-31T04:46:57;14.55;;;4.35;;
74471;SDS011;62920;53.572;10.050;2023-03-31T04:49:23;11.27;;;3.63;;
74471;SDS011;62920;53.572;10.050;2023-03-31T04:51:48;12.45;;;3.80;;
74471;SDS011;62920;53.572;10.050;2023-03-31T04:54:14;10.80;;;4.15;;
74471;SDS011;62920;53.572;10.050;2023-03-31T04:56:40;11.05;;;4.22;;
74471;SDS011;62920;53.572;10.050;2023-03-31T04:59:05;14.00;;;4.03;;
74471;SDS011;62920;53.572;10.050;2023-03-31T05:01:32;11.55;;;4.18;;
74471;SDS011;62920;53.572;10.050;2023-03-31T05:03:58;19.73;;;4.30;;
74471;SDS011;62920;53.572;10.050;2023-03-31T05:06:24;13.95;;;4.10;;
74471;SDS011;62920;53.572;10.050;2023-03-31T05:08:49;11.13;;;4.38;;
74471;SDS011;62920;53.572;10.050;2023-03-31T05:11:14;13.63;;;4.60;;
74471;SDS011;62920;53.572;10.050;2023-03-31T05:13:40;15.38;;;5.28;;
74471;SDS011;62920;53.572;10.050;2023-03-31T05:16:09;10.00;;;3.88;;
74471;SDS011;62920;53.572;10.050;2023-03-31T05:18:36;12.73;;;4.25;;
74471;SDS011;62920;53.572;10.050;2023-03-31T05:21:11;11.95;;;4.63;;
74471;SDS011;62920;53.572;10.050;2023-03-31T05:23:38;15.00;;;4.72;;
74471;SDS011;62920;53.572;10.050;2023-03-31T05:26:04;20.13;;;5.03;;
74471;SDS011;62920;53.572;10.050;2023-03-31T05:28:30;11.63;;;4.05;;
74471;SDS011;62920;53.572;10.050;2023-03-31T05:30:57;12.50;;;4.25;;
74471;SDS011;62920;53.572;10.050;2023-03-31T05:33:23;11.25;;;4.70;;
74471;SDS011;62920;53.572;10.050;2023-03-31T05:35:48;11.50;;;4.05;;
74471;SDS011;62920;53.572;10.050;2023-03-31T05:38:14;13.38;;;4.32;;
74471;SDS011;62920;53.572;10.050;2023-03-31T05:40:39;13.13;;;4.18;;
74471;SDS011;62920;53.572;10.050;2023-03-31T05:43:05;14.38;;;4.68;;
74471;SDS011;62920;53.572;10.050;2023-03-31T05:45:30;15.02;;;4.03;;
74471;SDS011;62920;53.572;10.050;2023-03-31T05:47:56;10.90;;;4.03;;
74471;SDS011;62920;53.572;10.050;2023-03-31T05:50:21;13.07;;;4.40;;
74471;SDS011;62920;53.572;10.050;2023-03-31T05:52:46;11.35;;;4.65;;
74471;SDS011;62920;53.572;10.050;2023-03-31T05:55:12;13.52;;;4.13;;
74471;SDS011;62920;53.572;10.050;2023-03-31T05:57:37;11.60;;;3.95;;
74471;SDS011;62920;53.572;10.050;2023-03-31T06:00:03;13.25;;;3.85;;
74471;SDS011;62920;53.572;10.050;2023-03-31T06:02:31;11.40;;;3.97;;
74471;SDS011;62920;53.572;10.050;2023-03-31T06:04:57;9.35;;;3.90;;
74471;SDS011;62920;53.572;10.050;2023-03-31T06:07:22;15.93;;;4.30;;
74471;SDS011;62920;53.572;10.050;2023-03-31T06:09:49;12.70;;;4.13;;
74471;SDS011;62920;53.572;10.050;2023-03-31T06:12:14;15.65;;;3.55;;
74471;SDS011;62920;53.572;10.050;2023-03-31T06:14:40;13.85;;;3.78;;
74471;SDS011;62920;53.572;10.050;2023-03-31T06:17:06;10.75;;;3.90;;
74471;SDS011;62920;53.572;10.050;2023-03-31T06:19:31;11.48;;;3.90;;
74471;SDS011;62920;53.572;10.050;2023-03-31T06:21:56;11.60;;;3.80;;
74471;SDS011;62920;53.572;10.050;2023-03-31T06:24:22;11.50;;;3.72;;
74471;SDS011;62920;53.572;10.050;2023-03-31T06:26:47;14.73;;;3.78;;
74471;SDS011;62920;53.572;10.050;2023-03-31T06:29:12;9.13;;;3.10;;
74471;SDS011;62920;53.572;10.050;2023-03-31T06:31:38;13.38;;;3.75;;
74471;SDS011;62920;53.572;10.050;2023-03-31T06:34:04;14.68;;;3.88;;
74471;SDS011;62920;53.572;10.050;2023-03-31T06:36:30;9.63;;;3.58;;
74471;SDS011;62920;53.572;10.050;2023-03-31T06:38:56;13.98;;;3.50;;
74471;SDS011;62920;53.572;10.050;2023-03-31T06:41:22;12.30;;;3.67;;
74471;SDS011;62920;53.572;10.050;2023-03-31T06:43:47;13.30;;;3.03;;
74471;SDS011;62920;53.572;10.050;2023-03-31T06:46:13;9.48;;;3.45;;
74471;SDS011;62920;53.572;10.050;2023-03-31T06:48:38;10.27;;;3.20;;
74471;SDS011;62920;53.572;10.050;2023-03-31T06:53:30;11.93;;;3.28;;
74471;SDS011;62920;53.572;10.050;2023-03-31T06:55:56;8.57;;;3.40;;
74471;SDS011;62920;53.572;10.050;2023-03-31T06:58:21;11.77;;;3.05;;
74471;SDS011;62920;53.572;10.050;2023-03-31T07:00:47;11.35;;;3.70;;
74471;SDS011;62920;53.572;10.050;2023-03-31T07:03:12;12.13;;;3.30;;
74471;SDS011;62920;53.572;10.050;2023-03-31T07:05:46;15.25;;;3.80;;
74471;SDS011;62920;53.572;10.050;2023-03-31T07:08:12;15.15;;;3.90;;
74471;SDS011;62920;53.572;10.050;2023-03-31T07:10:38;14.35;;;4.57;;
74471;SDS011;62920;53.572;10.050;2023-03-31T07:13:03;10.48;;;4.13;;
74471;SDS011;62920;53.572;10.050;2023-03-31T07:15:29;14.38;;;3.38;;
74471;SDS011;62920;53.572;10.050;2023-03-31T07:17:57;11.93;;;4.00;;
74471;SDS011;62920;53.572;10.050;2023-03-31T07:20:26;11.45;;;3.75;;
74471;SDS011;62920;53.572;10.050;2023-03-31T07:22:51;11.45;;;3.80;;
74471;SDS011;62920;53.572;10.050;2023-03-31T07:25:17;10.40;;;4.40;;
74471;SDS011;62920;53.572;10.050;2023-03-31T07:27:43;10.88;;;3.72;;
74471;SDS011;62920;53.572;10.050;2023-03-31T07:30:10;14.85;;;4.18;;
74471;SDS011;62920;53.572;10.050;2023-03-31T07:32:37;11.60;;;3.80;;
74471;SDS011;62920;53.572;10.050;2023-03-31T07:35:05;10.35;;;3.95;;
74471;SDS011;62920;53.572;10.050;2023-03-31T07:37:38;10.82;;;3.50;;
74471;SDS011;62920;53.572;10.050;2023-03-31T07:40:06;14.88;;;3.90;;
74471;SDS011;62920;53.572;10.050;2023-03-31T07:42:33;12.73;;;3.95;;
74471;SDS011;62920;53.572;10.050;2023-03-31T07:44:58;10.60;;;3.47;;
74471;SDS011;62920;53.572;10.050;2023-03-31T07:47:24;17.02;;;4.53;;
74471;SDS011;62920;53.572;10.050;2023-03-31T07:49:50;10.88;;;3.85;;
74471;SDS011;62920;53.572;10.050;2023-03-31T07:52:15;8.30;;;3.08;;
74471;SDS011;62920;53.572;10.050;2023-03-31T07:54:42;12.18;;;3.60;;
74471;SDS011;62920;53.572;10.050;2023-03-31T07:57:07;10.43;;;3.58;;
74471;SDS011;62920;53.572;10.050;2023-03-31T07:59:34;10.02;;;3.38;;
74471;SDS011;62920;53.572;10.050;2023-03-31T08:01:59;8.38;;;3.65;;
74471;SDS011;62920;53.572;10.050;2023-03-31T08:04:25;15.88;;;3.67;;
74471;SDS011;62920;53.572;10.050;2023-03-31T08:06:50;8.20;;;2.88;;
74471;SDS011;62920;53.572;10.050;2023-03-31T08:09:16;14.25;;;4.07;;
74471;SDS011;62920;53.572;10.050;2023-03-31T08:11:42;10.20;;;3.40;;
74471;SDS011;62920;53.572;10.050;2023-03-31T08:14:08;8.95;;;3.40;;
74471;SDS011;62920;53.572;10.050;2023-03-31T08:16:34;11.07;;;3.13;;
74471;SDS011;62920;53.572;10.050;2023-03-31T08:18:59;11.13;;;3.53;;
74471;SDS011;62920;53.572;10.050;2023-03-31T08:21:26;11.45;;;3.20;;
74471;SDS011;62920;53.572;10.050;2023-03-31T08:23:53;12.85;;;3.90;;
74471;SDS011;62920;53.572;10.050;2023-03-31T08:26:19;11.38;;;3.20;;
74471;SDS011;62920;53.572;10.050;2023-03-31T08:28:48;8.68;;;3.05;;
74471;SDS011;62920;53.572;10.050;2023-03-31T08:31:13;10.27;;;3.00;;
74471;SDS011;62920;53.572;10.050;2023-03-31T08:33:42;7.53;;;2.70;;
74471;SDS011;62920;53.572;10.050;2023-03-31T08:36:08;8.18;;;3.03;;
74471;SDS011;62920;53.572;10.050;2023-03-31T08:38:38;8.20;;;2.88;;
74471;SDS011;62920;53.572;10.050;2023-03-31T08:41:06;6.60;;;2.63;;
74471;SDS011;62920;53.572;10.050;2023-03-31T08:46:05;7.80;;;2.65;;
74471;SDS011;62920;53.572;10.050;2023-03-31T08:48:45;8.68;;;2.78;;
74471;SDS011;62920;53.572;10.050;2023-03-31T08:57:00;7.72;;;2.38;;
74471;SDS011;62920;53.572;10.050;2023-03-31T08:59:26;7.50;;;2.40;;
74471;SDS011;62920;53.572;10.050;2023-03-31T09:02:03;9.13;;;2.25;;
74471;SDS011;62920;53.572;10.050;2023-03-31T09:18:46;10.48;;;2.67;;
74471;SDS011;62920;53.572;10.050;2023-03-31T09:21:20;5.60;;;1.95;;
74471;SDS011;62920;53.572;10.050;2023-03-31T09:23:54;6.25;;;2.63;;
74471;SDS011;62920;53.572;10.050;2023-03-31T09:26:39;11.73;;;2.45;;
74471;SDS011;62920;53.572;10.050;2023-03-31T09:29:10;7.28;;;2.55;;
74471;SDS011;62920;53.572;10.050;2023-03-31T09:31:40;9.77;;;2.95;;
74471;SDS011;62920;53.572;10.050;2023-03-31T09:34:15;8.13;;;2.58;;
74471;SDS011;62920;53.572;10.050;2023-03-31T09:36:43;6.82;;;2.20;;
74471;SDS011;62920;53.572;10.050;2023-03-31T09:39:12;7.00;;;2.22;;
74471;SDS011;62920;53.572;10.050;2023-03-31T09:41:39;7.35;;;2.00;;
74471;SDS011;62920;53.572;10.050;2023-03-31T09:44:21;5.28;;;2.05;;
74471;SDS011;62920;53.572;10.050;2023-03-31T09:46:49;10.07;;;2.30;;
74471;SDS011;62920;53.572;10.050;2023-03-31T09:49:17;8.60;;;1.92;;
74471;SDS011;62920;53.572;10.050;2023-03-31T09:51:45;6.07;;;1.83;;
74471;SDS011;62920;53.572;10.050;2023-03-31T09:56:47;7.22;;;2.17;;
74471;SDS011;62920;53.572;10.050;2023-03-31T09:59:23;6.93;;;2.13;;
74471;SDS011;62920;53.572;10.050;2023-03-31T10:01:57;7.75;;;1.83;;
74471;SDS011;62920;53.572;10.050;2023-03-31T10:04:24;5.75;;;1.90;;
74471;SDS011;62920;53.572;10.050;2023-03-31T10:06:53;6.07;;;1.75;;
74471;SDS011;62920;53.572;10.050;2023-03-31T10:09:19;6.95;;;1.85;;
74471;SDS011;62920;53.572;10.050;2023-03-31T10:11:51;8.90;;;2.10;;
74471;SDS011;62920;53.572;10.050;2023-03-31T10:14:18;8.30;;;2.13;;
74471;SDS011;62920;53.572;10.050;2023-03-31T10:16:53;5.43;;;1.92;;
74471;SDS011;62920;53.572;10.050;2023-03-31T10:21:56;8.48;;;2.55;;
74471;SDS011;62920;53.572;10.050;2023-03-31T10:24:22;6.22;;;2.45;;
74471;SDS011;62920;53.572;10.050;2023-03-31T10:26:48;13.75;;;2.30;;
74471;SDS011;62920;53.572;10.050;2023-03-31T10:29:17;5.43;;;1.70;;
74471;SDS011;62920;53.572;10.050;2023-03-31T10:31:46;5.20;;;2.17;;
74471;SDS011;62920;53.572;10.050;2023-03-31T10:34:14;5.70;;;2.20;;
74471;SDS011;62920;53.572;10.050;2023-03-31T10:36:49;7.78;;;2.35;;
74471;SDS011;62920;53.572;10.050;2023-03-31T10:39:16;6.05;;;2.28;;
74471;SDS011;62920;53.572;10.050;2023-03-31T10:41:42;6.40;;;2.03;;
74471;SDS011;62920;53.572;10.050;2023-03-31T10:46:54;8.27;;;1.92;;
74471;SDS011;62920;53.572;10.050;2023-03-31T10:51:48;7.13;;;2.10;;
74471;SDS011;62920;53.572;10.050;2023-03-31T10:54:20;5.28;;;1.85;;
74471;SDS011;62920;53.572;10.050;2023-03-31T10:56:46;4.63;;;1.70;;
74471;SDS011;62920;53.572;10.050;2023-03-31T11:02:35;6.57;;;2.22;;
74471;SDS011;62920;53.572;10.050;2023-03-31T11:05:18;7.10;;;1.90;;
74471;SDS011;62920;53.572;10.050;2023-03-31T11:13:53;4.68;;;1.85;;
74471;SDS011;62920;53.572;10.050;2023-03-31T11:19:06;7.70;;;1.92;;
74471;SDS011;62920;53.572;10.050;2023-03-31T11:21:51;5.25;;;1.98;;
74471;SDS011;62920;53.572;10.050;2023-03-31T11:24:31;6.28;;;1.92;;
74471;SDS011;62920;53.572;10.050;2023-03-31T11:51:08;5.47;;;1.83;;
74471;SDS011;62920;53.572;10.050;2023-03-31T11:53:38;6.13;;;1.77;;
74471;SDS011;62920;53.572;10.050;2023-03-31T11:56:05;5.68;;;1.30;;
74471;SDS011;62920;53.572;10.050;2023-03-31T11:58:34;5.82;;;1.50;;
74471;SDS011;62920;53.572;10.050;2023-03-31T12:01:05;5.95;;;2.55;;
74471;SDS011;62920;53.572;10.050;2023-03-31T12:06:05;9.90;;;2.00;;
74471;SDS011;62920;53.572;10.050;2023-03-31T12:08:42;5.22;;;1.63;;
74471;SDS011;62920;53.572;10.050;2023-03-31T12:17:07;4.90;;;1.80;;
74471;SDS011;62920;53.572;10.050;2023-03-31T12:24:35;7.90;;;2.22;;
74471;SDS011;62920;53.572;10.050;2023-03-31T12:29:34;4.32;;;1.95;;
74471;SDS011;62920;53.572;10.050;2023-03-31T12:32:03;4.50;;;2.15;;
74471;SDS011;62920;53.572;10.050;2023-03-31T12:34:31;7.60;;;2.47;;
74471;SDS011;62920;53.572;10.050;2023-03-31T12:47:29;9.32;;;2.70;;
74471;SDS011;62920;53.572;10.050;2023-03-31T12:50:14;8.88;;;2.30;;
74471;SDS011;62920;53.572;10.050;2023-03-31T13:05:59;7.43;;;2.55;;
74471;SDS011;62920;53.572;10.050;2023-03-31T13:11:13;5.78;;;2.50;;
74471;SDS011;62920;53.572;10.050;2023-03-31T13:17:09;6.40;;;2.50;;
74471;SDS011;62920;53.572;10.050;2023-03-31T13:19:36;6.25;;;2.53;;
74471;SDS011;62920;53.572;10.050;2023-03-31T13:22:05;6.80;;;2.22;;
74471;SDS011;62920;53.572;10.050;2023-03-31T13:24:31;7.75;;;2.22;;
74471;SDS011;62920;53.572;10.050;2023-03-31T13:29:24;6.05;;;2.17;;
74471;SDS011;62920;53.572;10.050;2023-03-31T13:34:33;6.93;;;2.40;;
74471;SDS011;62920;53.572;10.050;2023-03-31T13:37:06;4.80;;;2.30;;
74471;SDS011;62920;53.572;10.050;2023-03-31T13:39:43;8.20;;;2.35;;
74471;SDS011;62920;53.572;10.050;2023-03-31T13:42:32;5.78;;;2.70;;
74471;SDS011;62920;53.572;10.050;2023-03-31T14:07:44;5.40;;;1.80;;
74471;SDS011;62920;53.572;10.050;2023-03-31T14:10:53;3.45;;;1.58;;
74471;SDS011;62920;53.572;10.050;2023-03-31T14:13:04;4.90;;;1.70;;
74471;SDS011;62920;53.572;10.050;2023-03-31T14:15:56;6.30;;;2.17;;
74471;SDS011;62920;53.572;10.050;2023-03-31T14:18:23;3.53;;;1.98;;
74471;SDS011;62920;53.572;10.050;2023-03-31T14:21:00;4.90;;;1.80;;
74471;SDS011;62920;53.572;10.050;2023-03-31T14:26:34;4.93;;;1.90;;
74471;SDS011;62920;53.572;10.050;2023-03-31T14:31:44;5.15;;;2.00;;
74471;SDS011;62920;53.572;10.050;2023-03-31T14:36:59;4.00;;;1.70;;
74471;SDS011;62920;53.572;10.050;2023-03-31T14:39:32;6.22;;;2.00;;
74471;SDS011;62920;53.572;10.050;2023-03-31T14:42:04;4.70;;;1.80;;
74471;SDS011;62920;53.572;10.050;2023-03-31T14:44:35;4.78;;;2.20;;
74471;SDS011;62920;53.572;10.050;2023-03-31T14:47:00;7.97;;;2.10;;
74471;SDS011;62920;53.572;10.050;2023-03-31T14:49:27;4.13;;;1.60;;
74471;SDS011;62920;53.572;10.050;2023-03-31T14:51:53;5.75;;;1.60;;
74471;SDS011;62920;53.572;10.050;2023-03-31T14:54:22;4.18;;;1.40;;
74471;SDS011;62920;53.572;10.050;2023-03-31T14:56:49;3.88;;;1.60;;
74471;SDS011;62920;53.572;10.050;2023-03-31T14:59:21;4.45;;;1.52;;
74471;SDS011;62920;53.572;10.050;2023-03-31T15:01:52;4.55;;;1.60;;
74471;SDS011;62920;53.572;10.050;2023-03-31T15:04:21;3.80;;;1.40;;
74471;SDS011;62920;53.572;10.050;2023-03-31T15:06:48;5.38;;;1.77;;
74471;SDS011;62920;53.572;10.050;2023-03-31T15:09:25;3.20;;;1.60;;
74471;SDS011;62920;53.572;10.050;2023-03-31T15:11:56;3.28;;;1.40;;
74471;SDS011;62920;53.572;10.050;2023-03-31T15:14:27;3.53;;;1.45;;
74471;SDS011;62920;53.572;10.050;2023-03-31T15:16:56;7.18;;;1.90;;
74471;SDS011;62920;53.572;10.050;2023-03-31T15:19:23;5.03;;;1.67;;
74471;SDS011;62920;53.572;10.050;2023-03-31T15:21:57;5.53;;;1.42;;
74471;SDS011;62920;53.572;10.050;2023-03-31T15:24:38;6.80;;;1.60;;
74471;SDS011;62920;53.572;10.050;2023-03-31T15:27:04;3.63;;;1.42;;
74471;SDS011;62920;53.572;10.050;2023-03-31T15:32:28;3.35;;;1.20;;
74471;SDS011;62920;53.572;10.050;2023-03-31T15:34:55;3.42;;;0.98;;
74471;SDS011;62920;53.572;10.050;2023-03-31T15:37:25;4.65;;;1.33;;
74471;SDS011;62920;53.572;10.050;2023-03-31T15:39:54;4.40;;;0.93;;
74471;SDS011;62920;53.572;10.050;2023-03-31T15:42:21;5.05;;;1.40;;
74471;SDS011;62920;53.572;10.050;2023-03-31T15:44:53;2.60;;;1.10;;
74471;SDS011;62920;53.572;10.050;2023-03-31T15:47:20;4.97;;;1.35;;
74471;SDS011;62920;53.572;10.050;2023-03-31T15:50:07;7.05;;;2.20;;
74471;SDS011;62920;53.572;10.050;2023-03-31T15:52:37;3.25;;;1.10;;
74471;SDS011;62920;53.572;10.050;2023-03-31T15:57:53;3.17;;;0.95;;
74471;SDS011;62920;53.572;10.050;2023-03-31T16:02:58;2.92;;;1.00;;
74471;SDS011;62920;53.572;10.050;2023-03-31T16:08:13;4.10;;;0.93;;
74471;SDS011;62920;53.572;10.050;2023-03-31T16:10:41;3.63;;;1.13;;
74471;SDS011;62920;53.572;10.050;2023-03-31T16:13:07;3.80;;;1.50;;
74471;SDS011;62920;53.572;10.050;2023-03-31T16:15:41;5.07;;;1.50;;
74471;SDS011;62920;53.572;10.050;2023-03-31T16:18:10;5.03;;;1.45;;
74471;SDS011;62920;53.572;10.050;2023-03-31T16:20:38;4.38;;;1.23;;
74471;SDS011;62920;53.572;10.050;2023-03-31T16:23:11;3.83;;;1.10;;
74471;SDS011;62920;53.572;10.050;2023-03-31T16:25:39;3.67;;;1.25;;
74471;SDS011;62920;53.572;10.050;2023-03-31T16:28:05;5.22;;;1.30;;
74471;SDS011;62920;53.572;10.050;2023-03-31T16:30:41;3.72;;;1.25;;
74471;SDS011;62920;53.572;10.050;2023-03-31T16:33:07;3.97;;;1.23;;
74471;SDS011;62920;53.572;10.050;2023-03-31T16:35:35;4.60;;;1.17;;
74471;SDS011;62920;53.572;10.050;2023-03-31T16:38:03;3.78;;;1.20;;
74471;SDS011;62920;53.572;10.050;2023-03-31T16:40:29;3.38;;;1.20;;
74471;SDS011;62920;53.572;10.050;2023-03-31T16:45:39;6.22;;;1.25;;
74471;SDS011;62920;53.572;10.050;2023-03-31T16:48:07;4.57;;;1.50;;
74471;SDS011;62920;53.572;10.050;2023-03-31T16:50:32;6.85;;;1.48;;
74471;SDS011;62920;53.572;10.050;2023-03-31T16:52:59;4.20;;;1.27;;
74471;SDS011;62920;53.572;10.050;2023-03-31T16:55:25;2.65;;;1.23;;
74471;SDS011;62920;53.572;10.050;2023-03-31T16:57:51;3.72;;;1.40;;
74471;SDS011;62920;53.572;10.050;2023-03-31T17:00:17;4.43;;;1.50;;
74471;SDS011;62920;53.572;10.050;2023-03-31T17:02:43;5.20;;;1.30;;
74471;SDS011;62920;53.572;10.050;2023-03-31T17:05:08;3.78;;;1.40;;
74471;SDS011;62920;53.572;10.050;2023-03-31T17:07:34;3.72;;;1.48;;
74471;SDS011;62920;53.572;10.050;2023-03-31T17:09:59;3.20;;;1.40;;
74471;SDS011;62920;53.572;10.050;2023-03-31T17:12:25;3.13;;;1.27;;
74471;SDS011;62920;53.572;10.050;2023-03-31T17:14:50;4.18;;;1.77;;
74471;SDS011;62920;53.572;10.050;2023-03-31T17:17:16;4.28;;;1.55;;
74471;SDS011;62920;53.572;10.050;2023-03-31T17:19:41;5.53;;;2.05;;
74471;SDS011;62920;53.572;10.050;2023-03-31T17:22:06;3.83;;;1.50;;
74471;SDS011;62920;53.572;10.050;2023-03-31T17:24:32;3.88;;;1.65;;
74471;SDS011;62920;53.572;10.050;2023-03-31T17:26:57;3.25;;;1.42;;
74471;SDS011;62920;53.572;10.050;2023-03-31T17:29:22;4.80;;;1.50;;
74471;SDS011;62920;53.572;10.050;2023-03-31T17:31:48;3.67;;;1.23;;
74471;SDS011;62920;53.572;10.050;2023-03-31T17:34:14;4.30;;;1.70;;
74471;SDS011;62920;53.572;10.050;2023-03-31T17:36:40;4.85;;;1.52;;
74471;SDS011;62920;53.572;10.050;2023-03-31T17:39:08;4.00;;;1.75;;
74471;SDS011;62920;53.572;10.050;2023-03-31T17:41:34;3.58;;;1.48;;
74471;SDS011;62920;53.572;10.050;2023-03-31T17:44:00;4.55;;;2.20;;
74471;SDS011;62920;53.572;10.050;2023-03-31T17:46:25;5.57;;;1.92;;
74471;SDS011;62920;53.572;10.050;2023-03-31T17:48:51;7.25;;;1.95;;
74471;SDS011;62920;53.572;10.050;2023-03-31T17:51:18;4.53;;;2.05;;
74471;SDS011;62920;53.572;10.050;2023-03-31T17:53:45;6.43;;;1.90;;
74471;SDS011;62920;53.572;10.050;2023-03-31T17:56:20;5.55;;;1.98;;
74471;SDS011;62920;53.572;10.050;2023-03-31T17:58:45;3.60;;;1.60;;
74471;SDS011;62920;53.572;10.050;2023-03-31T18:01:11;3.80;;;1.63;;
74471;SDS011;62920;53.572;10.050;2023-03-31T18:03:37;6.80;;;1.88;;
74471;SDS011;62920;53.572;10.050;2023-03-31T18:06:03;4.05;;;1.80;;
74471;SDS011;62920;53.572;10.050;2023-03-31T18:08:30;4.50;;;1.75;;
74471;SDS011;62920;53.572;10.050;2023-03-31T18:10:57;5.93;;;1.70;;
74471;SDS011;62920;53.572;10.050;2023-03-31T18:13:22;3.80;;;1.60;;
74471;SDS011;62920;53.572;10.050;2023-03-31T18:15:48;4.40;;;1.92;;